Time;durP1;ratioP1;P1;durP2;ratioP2;P2;SDS_P1;SDS_P2;PMS_P1;PMS_P2;Temp;Humidity;BMP_temperature;BMP_pressure;BME280_temperature;BME280_humidity;BME280_pressure;Samples;Min_cycle;Max_cycle;Signal;HPM_P1;HPM_P2
2023/01/22 00:00:21;;;;;;;29.87;14.10;;;;;;;7.48;84.76;101233.48;125431;1105;102109;-75
2023/01/22 00:03:12;;;;;;;28.77;14.03;;;;;;;7.47;84.62;101240.42;125242;1105;108880;-76
2023/01/22 00:05:43;;;;;;;30.33;12.40;;;;;;;7.48;84.39;101241.31;125172;1105;102426;-75
2023/01/22 00:08:14;;;;;;;27.17;12.17;;;;;;;7.47;84.75;101243.03;125401;1105;102003;-75
2023/01/22 00:10:51;;;;;;;29.07;11.77;;;;;;;7.46;84.91;101249.05;125431;1105;104210;-74
2023/01/22 00:13:24;;;;;;;30.93;12.90;;;;;;;7.44;84.94;101253.29;125453;1105;102131;-76
2023/01/22 00:15:58;;;;;;;28.53;12.07;;;;;;;7.44;84.54;101261.13;125298;1105;102146;-75
2023/01/22 00:18:29;;;;;;;30.37;13.30;;;;;;;7.41;85.24;101266.16;125485;1105;102160;-76
2023/01/22 00:21:01;;;;;;;31.00;13.03;;;;;;;7.43;84.41;101267.14;125326;1105;102057;-75
2023/01/22 00:23:32;;;;;;;29.73;13.63;;;;;;;7.44;85.33;101266.34;125386;1105;101890;-75
2023/01/22 00:26:05;;;;;;;28.50;11.60;;;;;;;7.45;85.46;101273.38;125085;1105;104191;-75
2023/01/22 00:28:37;;;;;;;29.13;11.27;;;;;;;7.41;85.10;101274.00;125252;1105;104194;-75
2023/01/22 00:31:10;;;;;;;24.97;11.23;;;;;;;7.37;85.68;101270.31;125141;1105;101843;-76
2023/01/22 00:33:42;;;;;;;27.10;11.30;;;;;;;7.34;85.78;101274.45;125338;1105;101833;-75
2023/01/22 00:36:15;;;;;;;27.97;13.07;;;;;;;7.34;85.19;101271.84;125284;1105;104198;-76
2023/01/22 00:38:47;;;;;;;30.52;13.78;;;;;;;7.31;85.72;101266.43;125320;1105;101994;-75
2023/01/22 00:41:19;;;;;;;36.00;15.57;;;;;;;7.27;85.20;101272.26;124947;1105;102031;-76
2023/01/22 00:43:50;;;;;;;36.30;15.37;;;;;;;7.25;85.54;101273.89;125261;1105;102013;-75
2023/01/22 00:46:22;;;;;;;31.20;14.77;;;;;;;7.23;86.22;101276.41;124968;1108;104188;-75
2023/01/22 00:48:53;;;;;;;33.00;13.60;;;;;;;7.22;86.66;101281.53;124917;1105;101939;-76
2023/01/22 00:51:25;;;;;;;38.90;16.17;;;;;;;7.14;86.78;101287.16;124728;1109;102109;-75
2023/01/22 00:53:56;;;;;;;36.40;15.70;;;;;;;7.08;86.08;101291.11;124889;1104;104179;-75
2023/01/22 00:56:28;;;;;;;36.97;16.23;;;;;;;7.02;86.64;101283.79;125255;1105;104178;-76
2023/01/22 00:58:59;;;;;;;38.73;16.10;;;;;;;6.97;86.72;101285.22;125175;1105;101981;-76
2023/01/22 01:01:32;;;;;;;34.53;15.93;;;;;;;6.95;86.51;101286.80;124951;1105;104383;-76
2023/01/22 01:04:03;;;;;;;32.27;15.93;;;;;;;6.95;86.07;101295.55;125099;1105;102997;-75
2023/01/22 01:06:36;;;;;;;34.73;15.93;;;;;;;6.96;86.24;101296.45;124949;1105;104284;-75
2023/01/22 01:09:08;;;;;;;38.43;16.17;;;;;;;6.92;86.69;101308.41;124804;1105;104284;-75
2023/01/22 01:11:40;;;;;;;33.80;15.87;;;;;;;6.92;86.28;101305.80;125349;1105;104679;-74
2023/01/22 01:14:11;;;;;;;36.13;14.63;;;;;;;6.93;86.28;101304.08;125383;1105;104118;-76
2023/01/22 01:16:42;;;;;;;33.37;17.50;;;;;;;6.94;86.82;101304.18;125398;1105;104181;-75
2023/01/22 01:19:16;;;;;;;36.47;16.60;;;;;;;6.95;86.37;101302.46;125221;1103;101897;-75
2023/01/22 01:21:48;;;;;;;32.17;16.32;;;;;;;6.95;86.68;101302.46;125414;1105;104172;-76
2023/01/22 01:24:21;;;;;;;36.37;16.87;;;;;;;6.95;87.00;101310.29;125339;1105;102347;-76
2023/01/22 01:26:52;;;;;;;36.60;15.43;;;;;;;6.92;86.80;101312.70;125264;1105;102293;-76
2023/01/22 01:29:35;;;;;;;36.37;16.17;;;;;;;6.91;86.40;101319.64;125380;1105;102028;-77
2023/01/22 01:32:06;;;;;;;30.97;13.80;;;;;;;6.91;87.26;101322.25;125430;1105;104158;-77
2023/01/22 01:34:39;;;;;;;36.93;15.17;;;;;;;6.89;86.96;101320.33;124903;1105;102055;-77
2023/01/22 01:37:11;;;;;;;38.50;16.30;;;;;;;6.82;87.16;101316.45;125094;1105;102199;-77
2023/01/22 01:39:46;;;;;;;33.30;15.77;;;;;;;6.81;86.94;101323.38;125024;1105;104264;-76
2023/01/22 01:42:25;;;;;;;32.33;15.10;;;;;;;6.79;87.26;101319.78;124749;1105;102113;-76
2023/01/22 01:45:22;;;;;;;37.43;16.00;;;;;;;6.71;87.34;101318.36;125019;1105;104171;-77
2023/01/22 01:47:58;;;;;;;34.00;15.47;;;;;;;6.70;87.40;101333.91;125230;1105;104297;-76
2023/01/22 01:50:29;;;;;;;35.87;14.93;;;;;;;6.72;87.61;101334.94;125065;1105;102239;-78
2023/01/22 01:53:02;;;;;;;33.10;13.47;;;;;;;6.71;87.61;101325.30;125061;1105;101835;-76
2023/01/22 01:55:39;;;;;;;31.73;12.87;;;;;;;6.71;88.04;101335.73;124853;1106;104332;-77
2023/01/22 01:58:20;;;;;;;33.43;14.83;;;;;;;6.68;88.09;101330.31;124749;1105;104194;-77
2023/01/22 02:00:55;;;;;;;35.90;15.13;;;;;;;6.66;87.77;101331.11;124976;1105;104297;-77
2023/01/22 02:03:28;;;;;;;33.87;14.80;;;;;;;6.68;87.39;101328.59;124977;1105;102503;-77
2023/01/22 02:05:59;;;;;;;35.70;15.17;;;;;;;6.69;88.08;101326.91;125272;1105;101792;-77
2023/01/22 02:08:31;;;;;;;36.20;15.15;;;;;;;6.69;88.05;101321.70;125117;1105;101943;-77
2023/01/22 02:11:02;;;;;;;38.27;16.00;;;;;;;6.68;88.29;101330.31;125317;1102;103564;-77
2023/01/22 02:13:38;;;;;;;37.33;15.77;;;;;;;6.69;88.33;101326.91;125301;1105;102099;-77
2023/01/22 02:16:10;;;;;;;40.30;15.03;;;;;;;6.71;88.38;101323.58;125326;1104;109560;-77
2023/01/22 02:18:42;;;;;;;39.03;15.10;;;;;;;6.72;88.17;101325.39;125271;1105;101852;-77
2023/01/22 02:21:37;;;;;;;35.60;15.47;;;;;;;6.73;88.31;101328.89;124989;1105;104421;-77
2023/01/22 02:24:12;;;;;;;37.17;15.70;;;;;;;6.74;88.61;101323.78;125254;1105;102121;-77
2023/01/22 02:26:45;;;;;;;35.77;14.33;;;;;;;6.76;88.39;101318.66;124912;1105;104313;-77
2023/01/22 02:29:20;;;;;;;39.20;14.90;;;;;;;6.77;88.70;101329.19;124897;1105;104367;-78
2023/01/22 02:31:51;;;;;;;39.57;15.00;;;;;;;6.78;88.22;101328.40;125367;1105;104253;-77
2023/01/22 02:34:29;;;;;;;37.40;15.50;;;;;;;6.81;88.71;101328.59;124928;1105;101991;-76
2023/01/22 02:37:01;;;;;;;36.80;15.77;;;;;;;6.83;88.26;101328.70;124936;1105;104239;-77
2023/01/22 02:39:32;;;;;;;37.63;16.70;;;;;;;6.85;88.87;101329.69;124866;1105;102113;-77
2023/01/22 02:42:06;;;;;;;49.23;17.50;;;;;;;6.85;89.13;101327.08;124886;1105;101972;-77
2023/01/22 02:44:38;;;;;;;38.60;17.33;;;;;;;6.87;88.23;101337.61;124864;1106;103340;-77
2023/01/22 02:47:10;;;;;;;35.80;17.00;;;;;;;6.87;88.79;101335.89;125052;1105;104169;-77
2023/01/22 02:49:42;;;;;;;36.40;18.33;;;;;;;6.89;88.97;101335.98;124894;1106;104313;-77
2023/01/22 02:52:13;;;;;;;45.90;18.27;;;;;;;6.92;88.83;101337.11;125288;1105;104254;-77
2023/01/22 02:54:45;;;;;;;40.20;18.20;;;;;;;6.94;89.33;101327.66;125309;1105;104182;-77
2023/01/22 02:57:17;;;;;;;45.07;16.80;;;;;;;6.97;88.93;101334.80;124954;1105;102129;-76
2023/01/22 02:59:49;;;;;;;43.03;17.30;;;;;;;6.97;89.29;101327.86;124983;1106;101951;-77
2023/01/22 03:02:21;;;;;;;40.30;17.27;;;;;;;6.97;89.25;101333.08;124944;1105;101892;-76
2023/01/22 03:05:02;;;;;;;36.67;17.50;;;;;;;6.98;89.08;101331.36;124875;1105;102280;-77
2023/01/22 03:07:43;;;;;;;40.00;18.33;;;;;;;6.97;89.05;101330.47;125241;1105;102055;-77
2023/01/22 03:10:18;;;;;;;41.53;17.80;;;;;;;6.99;89.44;101341.00;125224;1105;102119;-77
2023/01/22 03:21:22;;;;;;;34.30;15.33;;;;;;;7.03;90.10;101340.41;125206;1104;101819;-78
2023/01/22 03:23:55;;;;;;;31.47;13.90;;;;;;;7.05;89.71;101345.72;125207;1105;102221;-78
2023/01/22 03:26:30;;;;;;;35.03;15.60;;;;;;;7.06;90.27;101353.64;124982;1105;101902;-78
2023/01/22 03:29:06;;;;;;;30.40;13.93;;;;;;;7.04;89.49;101344.80;125009;1105;101959;-78
2023/01/22 03:31:39;;;;;;;34.47;13.00;;;;;;;7.05;90.36;101361.38;124879;1105;102216;-78
2023/01/22 03:34:10;;;;;;;29.97;12.67;;;;;;;7.05;89.88;101359.66;125164;1105;103149;-78
2023/01/22 03:36:42;;;;;;;29.57;12.80;;;;;;;7.03;90.32;101350.84;124693;1105;102029;-78
2023/01/22 03:39:14;;;;;;;30.40;12.53;;;;;;;7.02;90.89;101372.52;124739;1105;102048;-78
2023/01/22 03:41:46;;;;;;;29.73;13.17;;;;;;;6.99;90.76;101367.09;124878;1105;104182;-79
2023/01/22 03:44:18;;;;;;;29.17;13.20;;;;;;;7.00;90.68;101372.41;125142;1105;101864;-78
2023/01/22 03:46:50;;;;;;;29.47;14.70;;;;;;;6.99;91.24;101374.92;124826;1105;104169;-78
2023/01/22 03:49:21;;;;;;;32.80;15.30;;;;;;;6.98;90.64;101365.28;125052;1105;102050;-76
2023/01/22 03:51:56;;;;;;;30.70;16.03;;;;;;;6.99;90.71;101374.92;124840;1105;104252;-76
2023/01/22 03:54:29;;;;;;;30.97;15.70;;;;;;;7.01;90.46;101381.13;125401;1105;104095;-75
2023/01/22 03:57:01;;;;;;;33.97;16.07;;;;;;;7.02;91.34;101380.34;124828;1105;102633;-76
2023/01/22 03:59:35;;;;;;;32.53;16.27;;;;;;;7.02;90.78;101378.63;124990;1105;104188;-76
2023/01/22 04:02:06;;;;;;;30.73;14.97;;;;;;;7.04;91.11;101378.72;124949;1105;102010;-76
2023/01/22 04:04:43;;;;;;;33.67;15.83;;;;;;;7.03;90.61;101376.94;124845;1106;101919;-76
2023/01/22 04:07:14;;;;;;;31.60;14.10;;;;;;;7.03;91.14;101376.94;124751;1109;102123;-77
2023/01/22 04:09:46;;;;;;;31.33;14.80;;;;;;;7.02;90.93;101380.34;124822;1106;104233;-76
2023/01/22 04:12:17;;;;;;;33.57;14.33;;;;;;;7.02;91.04;101380.34;124863;1105;104187;-76
2023/01/22 04:14:49;;;;;;;27.63;13.57;;;;;;;7.02;91.17;101380.34;124904;1105;102157;-76
2023/01/22 04:17:20;;;;;;;29.37;15.13;;;;;;;7.02;91.04;101376.02;124928;1105;104313;-75
2023/01/22 04:20:00;;;;;;;32.60;13.93;;;;;;;7.03;91.54;101379.55;125145;1105;104345;-76
2023/01/22 04:23:04;;;;;;;26.53;11.23;;;;;;;7.02;91.82;101389.06;125039;1105;101984;-76
2023/01/22 04:25:37;;;;;;;27.93;12.53;;;;;;;7.00;91.51;101392.40;124966;1105;104310;-75
2023/01/22 04:28:10;;;;;;;27.17;12.00;;;;;;;6.99;91.71;101396.69;124710;1106;104377;-76
2023/01/22 04:30:42;;;;;;;28.30;12.40;;;;;;;6.99;91.25;101398.41;124939;1106;102434;-76
2023/01/22 04:33:30;;;;;;;27.77;12.57;;;;;;;7.00;91.92;101403.73;124804;1105;102230;-76
2023/01/22 04:36:14;;;;;;;30.03;13.67;;;;;;;7.01;91.50;101415.06;124792;1105;101923;-76
2023/01/22 04:38:46;;;;;;;29.30;15.25;;;;;;;7.00;91.51;101408.05;124991;1105;110320;-76
2023/01/22 04:41:17;;;;;;;39.63;17.17;;;;;;;7.00;92.00;101414.17;124976;1105;104323;-76
2023/01/22 04:43:49;;;;;;;37.70;16.97;;;;;;;6.99;91.68;101417.57;124669;1105;104220;-76
2023/01/22 04:46:20;;;;;;;33.23;17.27;;;;;;;6.99;91.53;101422.78;124773;1105;102086;-75
2023/01/22 04:48:51;;;;;;;32.03;15.57;;;;;;;6.98;92.20;101421.00;124929;1105;101883;-75
2023/01/22 04:51:23;;;;;;;36.07;17.53;;;;;;;7.00;92.27;101426.33;124701;1105;104240;-75
2023/01/22 04:53:55;;;;;;;32.43;16.57;;;;;;;7.00;91.59;101428.94;125045;1106;102214;-76
2023/01/22 04:56:27;;;;;;;36.93;18.60;;;;;;;6.99;92.73;101430.62;124931;1105;104226;-76
2023/01/22 04:58:59;;;;;;;34.73;17.03;;;;;;;7.00;92.24;101431.55;125182;1105;104195;-76
2023/01/22 05:01:30;;;;;;;41.53;18.47;;;;;;;6.99;92.29;101422.78;124748;1105;102039;-76
2023/01/22 05:04:04;;;;;;;36.77;18.73;;;;;;;6.99;92.28;101437.55;124772;1109;104204;-76
2023/01/22 05:06:38;;;;;;;40.60;18.27;;;;;;;6.96;92.11;101433.03;124924;1106;101840;-75
2023/01/22 05:09:09;;;;;;;34.57;16.57;;;;;;;6.97;92.23;101441.78;124911;1106;101983;-76
2023/01/22 05:11:54;;;;;;;33.90;14.67;;;;;;;6.94;92.93;101450.30;124998;1105;102216;-76
2023/01/22 05:14:25;;;;;;;28.13;12.47;;;;;;;6.93;92.71;101447.59;124788;1105;104258;-75
2023/01/22 05:16:57;;;;;;;30.60;14.03;;;;;;;6.88;93.27;101446.39;124754;1105;104172;-75
2023/01/22 05:19:28;;;;;;;28.93;13.00;;;;;;;6.83;92.43;101451.31;124906;1105;102029;-76
2023/01/22 05:21:59;;;;;;;30.67;14.27;;;;;;;6.78;92.70;101445.78;125016;1104;104297;-76
2023/01/22 05:24:31;;;;;;;28.17;12.50;;;;;;;6.75;93.11;101456.02;124714;1105;101894;-76
2023/01/22 05:27:03;;;;;;;27.80;12.13;;;;;;;6.73;92.91;101459.31;124714;1105;104275;-76
2023/01/22 05:29:41;;;;;;;25.27;10.97;;;;;;;6.70;93.49;101460.04;124727;1106;102047;-76
2023/01/22 05:32:23;;;;;;;31.70;13.77;;;;;;;6.68;92.37;101471.16;124898;1105;104251;-75
2023/01/22 05:34:58;;;;;;;29.30;13.87;;;;;;;6.69;92.42;101478.19;124906;1105;104188;-75
2023/01/22 05:37:30;;;;;;;34.93;15.47;;;;;;;6.66;93.51;101474.55;124938;1105;104219;-76
2023/01/22 05:40:04;;;;;;;30.83;14.37;;;;;;;6.65;92.35;101485.81;125192;1105;104223;-75
2023/01/22 05:42:37;;;;;;;34.33;14.97;;;;;;;6.66;92.41;101477.16;124947;1105;104175;-76
2023/01/22 05:45:11;;;;;;;29.93;13.53;;;;;;;6.69;92.57;101486.91;124903;1105;102159;-76
2023/01/22 05:47:54;;;;;;;32.80;14.37;;;;;;;6.69;92.42;101489.52;124909;1105;102721;-75
2023/01/22 05:50:48;;;;;;;34.57;15.10;;;;;;;6.70;92.67;101491.34;124968;1105;107293;-75
2023/01/22 05:53:20;;;;;;;32.40;15.57;;;;;;;6.70;93.26;101495.63;125128;1105;104221;-77
2023/01/22 05:55:51;;;;;;;35.97;16.03;;;;;;;6.71;92.78;101498.34;125165;1105;104329;-76
2023/01/22 05:58:23;;;;;;;38.00;17.83;;;;;;;6.73;92.10;101498.44;124970;1105;101899;-76
2023/01/22 06:00:55;;;;;;;34.87;16.23;;;;;;;6.73;92.72;101501.98;125232;1105;118331;-76
2023/01/22 06:03:27;;;;;;;33.57;16.77;;;;;;;6.74;92.55;101500.27;124998;1105;101830;-76
2023/01/22 06:06:04;;;;;;;35.90;17.57;;;;;;;6.75;92.79;101502.97;124908;1106;104325;-76
2023/01/22 06:08:36;;;;;;;37.63;17.40;;;;;;;6.76;92.51;101517.84;125244;1105;104182;-75
2023/01/22 06:11:11;;;;;;;36.97;17.73;;;;;;;6.77;92.73;101511.80;125127;1105;101973;-75
2023/01/22 06:13:43;;;;;;;35.33;16.27;;;;;;;6.78;93.20;101525.77;124948;1105;101920;-76
2023/01/22 06:16:22;;;;;;;37.77;16.90;;;;;;;6.77;93.01;101532.66;124752;1105;104309;-76
2023/01/22 06:19:09;;;;;;;37.20;15.00;;;;;;;6.78;92.67;101530.98;124844;1105;102127;-76
2023/01/22 06:21:55;;;;;;;33.60;14.80;;;;;;;6.76;93.20;101530.88;124966;1104;102296;-76
2023/01/22 06:24:34;;;;;;;32.17;14.90;;;;;;;6.74;92.72;101531.56;124998;1105;101898;-76
2023/01/22 06:27:06;;;;;;;36.30;15.87;;;;;;;6.74;92.85;101542.89;124762;1105;104179;-76
2023/01/22 06:29:45;;;;;;;34.77;14.40;;;;;;;6.72;92.66;101546.22;124655;1105;102142;-77
2023/01/22 06:32:16;;;;;;;34.83;14.50;;;;;;;6.70;93.21;101550.41;124976;1105;104245;-76
2023/01/22 06:34:47;;;;;;;36.87;15.73;;;;;;;6.66;93.15;101554.52;125204;1105;101891;-76
2023/01/22 06:37:20;;;;;;;37.27;15.53;;;;;;;6.69;92.59;101554.73;124784;1105;104221;-75
2023/01/22 06:39:51;;;;;;;37.77;16.53;;;;;;;6.69;92.42;101567.77;124707;1105;102218;-76
2023/01/22 06:42:29;;;;;;;34.73;15.33;;;;;;;6.66;93.35;101570.17;124900;1105;102150;-75
2023/01/22 06:45:01;;;;;;;36.20;16.57;;;;;;;6.61;92.67;101571.56;124928;1105;104204;-76
2023/01/22 06:47:34;;;;;;;39.65;17.70;;;;;;;6.59;92.57;101578.36;124974;1105;104213;-76
2023/01/22 06:50:07;;;;;;;38.90;17.37;;;;;;;6.62;92.65;101571.67;124852;1105;104249;-76
2023/01/22 06:52:38;;;;;;;34.23;15.20;;;;;;;6.65;92.74;101584.92;124981;1105;102198;-75
2023/01/22 06:55:11;;;;;;;31.17;14.07;;;;;;;6.68;92.71;101584.20;124895;1105;104341;-75
2023/01/22 06:57:42;;;;;;;33.23;14.40;;;;;;;6.64;92.34;101577.89;124870;1105;101869;-75
2023/01/22 07:00:15;;;;;;;37.87;15.20;;;;;;;6.63;92.48;101596.93;125104;1105;104191;-75
2023/01/22 07:02:46;;;;;;;37.07;15.90;;;;;;;6.62;92.72;101596.83;125121;1105;102016;-76
2023/01/22 07:05:18;;;;;;;39.87;16.70;;;;;;;6.61;92.36;101608.08;125059;1105;104392;-76
2023/01/22 07:07:52;;;;;;;41.10;16.67;;;;;;;6.61;92.40;101605.47;125186;1105;104214;-75
2023/01/22 07:10:24;;;;;;;47.50;19.57;;;;;;;6.61;92.42;101610.69;125044;1105;102119;-75
2023/01/22 07:12:58;;;;;;;51.80;22.13;;;;;;;6.64;92.54;101614.40;125240;1105;102014;-75
2023/01/22 07:15:30;;;;;;;47.70;21.37;;;;;;;6.66;92.01;101610.19;125232;1105;102477;-76
2023/01/22 07:18:01;;;;;;;52.20;21.20;;;;;;;6.66;92.28;101615.40;125337;1105;102495;-76
2023/01/22 07:20:32;;;;;;;45.20;19.33;;;;;;;6.68;92.37;101612.00;125006;1105;102015;-76
2023/01/22 07:23:04;;;;;;;41.07;18.03;;;;;;;6.69;92.35;101611.22;125030;1105;104243;-76
2023/01/22 07:25:35;;;;;;;40.20;18.40;;;;;;;6.71;92.54;101607.00;125070;1104;101880;-75
2023/01/22 07:28:07;;;;;;;42.47;19.30;;;;;;;6.74;92.28;101617.64;124934;1105;102304;-75
2023/01/22 07:30:39;;;;;;;39.37;17.30;;;;;;;6.72;92.16;101620.15;124913;1105;102012;-75
2023/01/22 07:33:12;;;;;;;41.70;17.30;;;;;;;6.74;92.41;101628.97;124983;1105;104286;-75
2023/01/22 07:35:44;;;;;;;47.80;21.17;;;;;;;6.78;92.19;101636.23;125046;1105;104182;-75
2023/01/22 07:38:15;;;;;;;53.00;23.20;;;;;;;6.79;92.53;101638.05;124853;1104;104291;-75
2023/01/22 07:40:46;;;;;;;48.40;22.23;;;;;;;6.81;92.18;101639.05;124949;1104;104259;-75
2023/01/22 07:43:17;;;;;;;46.70;21.37;;;;;;;6.81;92.22;101641.66;125310;1105;104443;-75
2023/01/22 07:45:48;;;;;;;50.50;21.13;;;;;;;6.82;92.25;101648.70;124769;1105;104410;-75
2023/01/22 07:48:20;;;;;;;47.07;20.43;;;;;;;6.78;91.46;101645.77;125032;1105;102239;-75
2023/01/22 07:50:51;;;;;;;43.03;20.60;;;;;;;6.73;91.04;101652.34;125032;1104;102683;-76
2023/01/22 07:53:22;;;;;;;44.70;19.40;;;;;;;6.73;91.46;101640.23;124853;1105;102038;-75
2023/01/22 07:55:53;;;;;;;38.50;17.20;;;;;;;6.65;91.52;101643.98;124875;1105;101965;-75
2023/01/22 07:58:25;;;;;;;42.77;18.97;;;;;;;6.59;91.29;101639.27;124767;1105;104230;-75
2023/01/22 08:00:56;;;;;;;37.23;17.07;;;;;;;6.55;91.14;101631.13;124981;1105;102027;-75
2023/01/22 08:03:32;;;;;;;38.20;17.23;;;;;;;6.50;91.05;101632.48;124933;1105;110322;-75
2023/01/22 08:06:10;;;;;;;35.30;16.80;;;;;;;6.49;91.00;101644.63;124870;1105;101945;-75
2023/01/22 08:08:41;;;;;;;36.97;16.80;;;;;;;6.46;91.30;101650.52;124838;1105;102167;-76
2023/01/22 08:11:12;;;;;;;33.37;14.97;;;;;;;6.50;91.11;101658.55;125075;1105;103245;-76
2023/01/22 08:13:43;;;;;;;32.00;14.17;;;;;;;6.52;91.19;101668.31;124878;1105;102372;-75
2023/01/22 08:16:15;;;;;;;31.73;14.30;;;;;;;6.51;90.99;101682.13;125045;1105;104185;-75
2023/01/22 08:18:46;;;;;;;31.73;15.83;;;;;;;6.46;90.85;101683.52;125059;1105;104249;-76
2023/01/22 08:21:17;;;;;;;32.70;15.43;;;;;;;6.46;90.95;101696.55;125223;1105;104197;-75
2023/01/22 08:23:48;;;;;;;32.60;15.47;;;;;;;6.45;90.79;101694.73;124923;1105;104182;-75
2023/01/22 08:26:20;;;;;;;31.40;13.50;;;;;;;6.45;90.66;101702.55;125074;1105;104239;-76
2023/01/22 08:28:51;;;;;;;31.87;13.90;;;;;;;6.40;90.50;101703.94;124931;1105;104136;-76
2023/01/22 08:31:22;;;;;;;30.47;13.43;;;;;;;6.41;91.15;101709.27;125220;1105;101868;-77
2023/01/22 08:33:53;;;;;;;29.07;14.10;;;;;;;6.38;90.49;101711.65;124901;1105;102060;-77
2023/01/22 08:36:25;;;;;;;31.87;15.33;;;;;;;6.37;90.48;101712.43;124929;1105;102377;-75
2023/01/22 08:38:56;;;;;;;32.03;15.60;;;;;;;6.40;90.34;101710.05;125381;1103;102103;-75
2023/01/22 08:41:27;;;;;;;30.43;14.93;;;;;;;6.45;90.93;101713.91;125163;1103;104323;-75
2023/01/22 08:43:58;;;;;;;32.13;14.67;;;;;;;6.51;90.82;101720.35;125079;1105;102412;-75
2023/01/22 08:46:30;;;;;;;29.73;13.80;;;;;;;6.56;91.06;101717.29;125089;1105;102018;-75
2023/01/22 08:49:01;;;;;;;33.63;13.80;;;;;;;6.60;91.14;101714.08;125202;1105;101960;-75
2023/01/22 08:51:32;;;;;;;32.53;14.23;;;;;;;6.61;90.61;101720.23;125129;1105;104188;-76
2023/01/22 08:54:04;;;;;;;33.57;15.60;;;;;;;6.65;90.82;101717.95;125245;1103;102360;-75
2023/01/22 08:56:35;;;;;;;31.43;15.30;;;;;;;6.69;90.87;101716.45;125086;1105;104200;-76
2023/01/22 08:59:06;;;;;;;32.63;17.07;;;;;;;6.71;90.79;101717.45;125057;1103;102267;-75
2023/01/22 09:01:38;;;;;;;34.53;17.83;;;;;;;6.67;90.62;101715.45;125029;1105;102171;-75
2023/01/22 09:04:10;;;;;;;38.97;18.90;;;;;;;6.65;90.45;101712.73;125094;1105;102722;-75
2023/01/22 09:06:41;;;;;;;38.17;19.70;;;;;;;6.62;90.71;101717.73;125068;1105;101827;-75
2023/01/22 09:09:13;;;;;;;40.57;20.00;;;;;;;6.61;90.24;101713.30;125054;1105;103432;-75
2023/01/22 09:11:45;;;;;;;32.93;16.83;;;;;;;6.63;90.33;101713.41;124951;1105;104357;-75
2023/01/22 09:14:16;;;;;;;32.93;15.87;;;;;;;6.63;90.42;101713.41;124896;1105;102250;-76
2023/01/22 09:16:48;;;;;;;31.63;15.10;;;;;;;6.60;90.06;101719.30;125095;1105;102096;-76
2023/01/22 09:19:19;;;;;;;30.17;14.30;;;;;;;6.56;89.97;101711.14;124938;1105;104226;-76
2023/01/22 09:21:50;;;;;;;30.40;14.23;;;;;;;6.46;89.73;101712.20;124978;1105;104256;-76
2023/01/22 09:24:22;;;;;;;27.97;12.97;;;;;;;6.40;90.02;101711.76;124951;1105;104291;-76
2023/01/22 09:26:53;;;;;;;26.23;13.13;;;;;;;6.38;89.40;101713.36;125038;1105;104198;-76
2023/01/22 09:29:24;;;;;;;28.33;12.83;;;;;;;6.32;89.29;101719.03;124861;1105;101947;-76
2023/01/22 09:31:56;;;;;;;24.63;12.23;;;;;;;6.33;89.94;101713.03;124862;1104;104213;-75
2023/01/22 09:34:27;;;;;;;25.93;12.07;;;;;;;6.33;89.78;101720.84;125020;1105;103472;-75
2023/01/22 09:37:01;;;;;;;25.47;11.17;;;;;;;6.36;89.87;101725.36;125099;1104;101983;-76
2023/01/22 09:39:32;;;;;;;26.75;11.63;;;;;;;6.34;89.99;101713.92;125003;1105;104185;-75
2023/01/22 09:42:07;;;;;;;25.57;11.43;;;;;;;6.33;90.15;101713.03;125098;1105;104194;-75
2023/01/22 09:44:43;;;;;;;26.67;12.33;;;;;;;6.35;89.84;101713.14;124936;1105;104313;-75
2023/01/22 09:47:16;;;;;;;27.57;12.53;;;;;;;6.38;90.75;101721.19;125008;1102;104192;-75
2023/01/22 09:49:54;;;;;;;28.02;12.85;;;;;;;6.40;89.85;101719.58;125129;1102;101913;-76
2023/01/22 09:52:28;;;;;;;27.47;11.97;;;;;;;6.41;90.01;101722.30;125111;1102;104125;-76
2023/01/22 09:55:00;;;;;;;24.87;11.85;;;;;;;6.38;89.85;101715.97;125046;1102;102533;-75
2023/01/22 09:57:31;;;;;;;27.50;11.95;;;;;;;6.39;89.96;101722.97;125126;1102;101833;-75
2023/01/22 10:00:03;;;;;;;28.77;15.07;;;;;;;6.36;89.69;101718.47;125052;1102;102083;-75
2023/01/22 10:02:47;;;;;;;28.83;14.37;;;;;;;6.40;90.00;101716.97;125336;1101;101948;-75
2023/01/22 10:05:23;;;;;;;26.43;13.27;;;;;;;6.39;89.64;101710.86;124854;1104;104233;-76
2023/01/22 10:08:02;;;;;;;25.73;12.00;;;;;;;6.38;89.65;101709.04;125170;1105;101907;-75
2023/01/22 10:10:34;;;;;;;33.30;16.83;;;;;;;6.28;89.36;101712.70;124717;1105;104316;-75
2023/01/22 10:13:15;;;;;;;34.63;18.33;;;;;;;6.20;89.26;101702.50;124851;1105;101849;-76
2023/01/22 10:15:47;;;;;;;35.87;19.73;;;;;;;6.10;89.96;101704.43;124867;1102;104350;-75
2023/01/22 10:18:30;;;;;;;35.30;19.30;;;;;;;6.14;89.45;101699.44;125027;1102;102304;-75
2023/01/22 10:21:06;;;;;;;37.50;18.92;;;;;;;6.18;89.96;101697.17;125061;1103;102408;-76
2023/01/22 10:23:37;;;;;;;34.93;18.77;;;;;;;6.20;89.85;101692.07;124941;1102;102141;-76
2023/01/22 10:26:16;;;;;;;38.13;20.27;;;;;;;6.10;89.48;101700.93;124789;1105;104192;-76
2023/01/22 10:28:51;;;;;;;33.70;18.03;;;;;;;6.12;89.89;101701.94;124813;1105;101850;-76
2023/01/22 10:31:32;;;;;;;32.23;17.23;;;;;;;6.10;89.37;101703.53;124946;1105;101971;-76
2023/01/22 10:34:09;;;;;;;26.93;13.70;;;;;;;6.14;89.55;101700.38;124927;1105;101913;-76
2023/01/22 10:36:40;;;;;;;27.57;13.27;;;;;;;6.17;89.72;101697.98;124857;1101;110838;-78
2023/01/22 10:39:14;;;;;;;26.57;13.23;;;;;;;6.23;89.93;101693.22;125135;1100;101816;-78
2023/01/22 10:41:47;;;;;;;27.22;13.38;;;;;;;6.29;89.65;101693.66;125170;1102;102017;-78
2023/01/22 10:44:24;;;;;;;30.27;14.00;;;;;;;6.33;89.25;101691.25;125043;1102;104329;-78
2023/01/22 10:47:07;;;;;;;28.40;13.93;;;;;;;6.29;89.37;101693.66;124845;1105;104175;-78
2023/01/22 10:49:38;;;;;;;28.20;13.93;;;;;;;6.29;89.46;101690.13;125088;1105;104211;-78
2023/01/22 10:52:23;;;;;;;31.83;15.03;;;;;;;6.32;89.97;101692.95;124962;1105;101887;-78
2023/01/22 10:54:58;;;;;;;38.30;19.40;;;;;;;6.37;89.95;101693.29;125178;1105;101910;-78
2023/01/22 10:57:32;;;;;;;35.53;17.30;;;;;;;6.41;89.64;101698.83;125054;1105;104208;-78
2023/01/22 11:00:20;;;;;;;30.05;13.85;;;;;;;6.38;89.22;101700.33;124873;1105;104105;-78
2023/01/22 11:02:52;;;;;;;28.77;13.90;;;;;;;6.35;89.91;101698.39;125115;1103;104261;-78
2023/01/22 11:05:26;;;;;;;27.93;13.40;;;;;;;6.35;89.54;101697.50;124879;1105;104137;-78
2023/01/22 11:08:03;;;;;;;28.90;13.73;;;;;;;6.36;89.64;101692.39;125026;1105;102129;-78
2023/01/22 11:10:45;;;;;;;29.10;13.50;;;;;;;6.39;89.68;101702.11;124828;1105;104168;-78
2023/01/22 11:13:19;;;;;;;30.80;14.87;;;;;;;6.39;89.76;101703.05;125141;1105;102042;-78
2023/01/22 11:15:57;;;;;;;32.93;15.63;;;;;;;6.46;90.13;101705.27;125033;1104;104243;-77
2023/01/22 11:18:35;;;;;;;30.27;14.30;;;;;;;6.48;89.20;101695.88;125004;1105;102096;-78
2023/01/22 11:21:14;;;;;;;34.33;16.90;;;;;;;6.47;89.28;101701.88;124852;1105;104255;-78
2023/01/22 11:23:52;;;;;;;35.53;17.80;;;;;;;6.42;88.62;101699.73;124743;1105;104306;-79
2023/01/22 11:26:38;;;;;;;35.50;17.40;;;;;;;6.28;89.05;101704.87;124854;1105;104191;-79
2023/01/22 11:29:24;;;;;;;36.03;16.30;;;;;;;6.16;89.05;101703.98;124877;1103;104227;-78
2023/01/22 11:32:13;;;;;;;41.57;18.60;;;;;;;6.15;89.26;101707.38;124969;1105;104249;-78
2023/01/22 11:34:54;;;;;;;36.23;16.60;;;;;;;6.13;89.34;101708.97;124916;1105;104223;-78
2023/01/22 11:37:50;;;;;;;32.50;16.00;;;;;;;6.10;89.69;101708.75;124774;1105;104261;-78
2023/01/22 11:40:28;;;;;;;30.60;14.10;;;;;;;6.05;89.70;101705.80;124992;1105;104146;-78